sensor_id;sensor_type;location;lat;lon;timestamp;P1;durP1;ratioP1;P2;durP2;ratioP2
72524;SDS011;60547;48.502;8.996;2023-04-24T00:01:38;1.60;;;0.70;;
72524;SDS011;60547;48.502;8.996;2023-04-24T00:04:05;1.52;;;0.60;;
72524;SDS011;60547;48.502;8.996;2023-04-24T00:06:32;1.77;;;0.70;;
72524;SDS011;60547;48.502;8.996;2023-04-24T00:08:59;3.10;;;1.05;;
72524;SDS011;60547;48.502;8.996;2023-04-24T00:11:26;2.20;;;0.85;;
72524;SDS011;60547;48.502;8.996;2023-04-24T00:13:52;2.55;;;0.77;;
72524;SDS011;60547;48.502;8.996;2023-04-24T00:16:17;2.65;;;1.00;;
72524;SDS011;60547;48.502;8.996;2023-04-24T00:18:43;1.77;;;0.70;;
72524;SDS011;60547;48.502;8.996;2023-04-24T00:21:10;2.08;;;0.90;;
72524;SDS011;60547;48.502;8.996;2023-04-24T00:23:36;1.77;;;0.65;;
72524;SDS011;60547;48.502;8.996;2023-04-24T00:26:02;1.50;;;0.68;;
72524;SDS011;60547;48.502;8.996;2023-04-24T00:28:27;1.77;;;0.88;;
72524;SDS011;60547;48.502;8.996;2023-04-24T00:30:53;1.45;;;0.70;;
72524;SDS011;60547;48.502;8.996;2023-04-24T00:33:19;1.95;;;0.70;;
72524;SDS011;60547;48.502;8.996;2023-04-24T00:35:44;3.20;;;0.80;;
72524;SDS011;60547;48.502;8.996;2023-04-24T00:38:10;1.77;;;0.70;;
72524;SDS011;60547;48.502;8.996;2023-04-24T00:40:35;2.88;;;0.95;;
72524;SDS011;60547;48.502;8.996;2023-04-24T00:43:01;5.20;;;0.85;;
72524;SDS011;60547;48.502;8.996;2023-04-24T00:45:26;1.30;;;0.70;;
72524;SDS011;60547;48.502;8.996;2023-04-24T00:47:52;1.85;;;0.73;;
72524;SDS011;60547;48.502;8.996;2023-04-24T00:50:18;1.75;;;0.52;;
72524;SDS011;60547;48.502;8.996;2023-04-24T00:52:46;2.55;;;0.70;;
72524;SDS011;60547;48.502;8.996;2023-04-24T00:55:12;1.30;;;0.60;;
72524;SDS011;60547;48.502;8.996;2023-04-24T00:57:37;2.78;;;0.80;;
72524;SDS011;60547;48.502;8.996;2023-04-24T01:00:04;1.80;;;0.80;;
72524;SDS011;60547;48.502;8.996;2023-04-24T01:02:31;1.55;;;0.65;;
72524;SDS011;60547;48.502;8.996;2023-04-24T01:05:00;0.93;;;0.60;;
72524;SDS011;60547;48.502;8.996;2023-04-24T01:07:26;1.08;;;0.60;;
72524;SDS011;60547;48.502;8.996;2023-04-24T01:09:52;2.17;;;0.82;;
72524;SDS011;60547;48.502;8.996;2023-04-24T01:12:18;3.38;;;0.88;;
72524;SDS011;60547;48.502;8.996;2023-04-24T01:14:45;2.38;;;0.80;;
72524;SDS011;60547;48.502;8.996;2023-04-24T01:17:11;2.75;;;0.95;;
72524;SDS011;60547;48.502;8.996;2023-04-24T01:19:37;2.08;;;0.88;;
72524;SDS011;60547;48.502;8.996;2023-04-24T01:22:03;1.33;;;0.75;;
72524;SDS011;60547;48.502;8.996;2023-04-24T01:24:36;3.72;;;0.77;;
72524;SDS011;60547;48.502;8.996;2023-04-24T01:27:02;1.95;;;0.77;;
72524;SDS011;60547;48.502;8.996;2023-04-24T01:29:28;1.17;;;0.60;;
72524;SDS011;60547;48.502;8.996;2023-04-24T01:31:54;1.55;;;0.68;;
72524;SDS011;60547;48.502;8.996;2023-04-24T01:34:20;1.00;;;0.65;;
72524;SDS011;60547;48.502;8.996;2023-04-24T01:36:46;1.20;;;0.70;;
72524;SDS011;60547;48.502;8.996;2023-04-24T01:39:12;1.13;;;0.70;;
72524;SDS011;60547;48.502;8.996;2023-04-24T01:41:38;2.03;;;0.80;;
72524;SDS011;60547;48.502;8.996;2023-04-24T01:44:04;2.80;;;0.70;;
72524;SDS011;60547;48.502;8.996;2023-04-24T01:46:29;2.35;;;0.80;;
72524;SDS011;60547;48.502;8.996;2023-04-24T01:48:56;2.05;;;0.80;;
72524;SDS011;60547;48.502;8.996;2023-04-24T01:51:24;2.13;;;0.77;;
72524;SDS011;60547;48.502;8.996;2023-04-24T01:53:50;1.23;;;0.80;;
72524;SDS011;60547;48.502;8.996;2023-04-24T01:56:16;1.17;;;0.70;;
72524;SDS011;60547;48.502;8.996;2023-04-24T01:58:42;1.38;;;0.68;;
72524;SDS011;60547;48.502;8.996;2023-04-24T02:01:08;1.67;;;0.73;;
72524;SDS011;60547;48.502;8.996;2023-04-24T02:03:33;1.35;;;0.75;;
72524;SDS011;60547;48.502;8.996;2023-04-24T02:05:59;1.98;;;0.90;;
72524;SDS011;60547;48.502;8.996;2023-04-24T02:08:24;2.97;;;0.98;;
72524;SDS011;60547;48.502;8.996;2023-04-24T02:10:50;1.88;;;0.90;;
72524;SDS011;60547;48.502;8.996;2023-04-24T02:13:16;1.95;;;0.88;;
72524;SDS011;60547;48.502;8.996;2023-04-24T02:15:41;1.38;;;0.68;;
72524;SDS011;60547;48.502;8.996;2023-04-24T02:18:07;2.05;;;0.77;;
72524;SDS011;60547;48.502;8.996;2023-04-24T02:20:32;1.83;;;0.88;;
72524;SDS011;60547;48.502;8.996;2023-04-24T02:23:00;2.90;;;0.90;;
72524;SDS011;60547;48.502;8.996;2023-04-24T02:25:26;2.45;;;0.80;;
72524;SDS011;60547;48.502;8.996;2023-04-24T02:27:52;2.55;;;1.10;;
72524;SDS011;60547;48.502;8.996;2023-04-24T02:30:17;1.65;;;0.90;;
72524;SDS011;60547;48.502;8.996;2023-04-24T02:32:43;1.65;;;0.80;;
72524;SDS011;60547;48.502;8.996;2023-04-24T02:35:08;1.55;;;0.70;;
72524;SDS011;60547;48.502;8.996;2023-04-24T02:37:34;2.33;;;0.95;;
72524;SDS011;60547;48.502;8.996;2023-04-24T02:39:59;1.63;;;0.82;;
72524;SDS011;60547;48.502;8.996;2023-04-24T02:42:25;3.10;;;1.20;;
72524;SDS011;60547;48.502;8.996;2023-04-24T02:44:50;2.22;;;1.10;;
72524;SDS011;60547;48.502;8.996;2023-04-24T02:47:16;3.47;;;1.23;;
72524;SDS011;60547;48.502;8.996;2023-04-24T02:49:42;2.13;;;0.93;;
72524;SDS011;60547;48.502;8.996;2023-04-24T02:52:08;2.05;;;0.70;;
72524;SDS011;60547;48.502;8.996;2023-04-24T02:54:35;3.38;;;1.00;;
72524;SDS011;60547;48.502;8.996;2023-04-24T02:57:01;4.45;;;0.90;;
72524;SDS011;60547;48.502;8.996;2023-04-24T02:59:26;3.28;;;0.93;;
72524;SDS011;60547;48.502;8.996;2023-04-24T03:01:54;3.47;;;1.10;;
72524;SDS011;60547;48.502;8.996;2023-04-24T03:04:19;1.65;;;0.80;;
72524;SDS011;60547;48.502;8.996;2023-04-24T03:06:45;1.55;;;0.80;;
72524;SDS011;60547;48.502;8.996;2023-04-24T03:09:11;2.33;;;0.70;;
72524;SDS011;60547;48.502;8.996;2023-04-24T03:11:36;1.90;;;0.75;;
72524;SDS011;60547;48.502;8.996;2023-04-24T03:14:07;1.88;;;0.90;;
72524;SDS011;60547;48.502;8.996;2023-04-24T03:16:33;1.42;;;0.70;;
72524;SDS011;60547;48.502;8.996;2023-04-24T03:18:58;2.65;;;0.90;;
72524;SDS011;60547;48.502;8.996;2023-04-24T03:21:24;15.65;;;1.63;;
72524;SDS011;60547;48.502;8.996;2023-04-24T03:23:49;3.13;;;0.88;;
72524;SDS011;60547;48.502;8.996;2023-04-24T03:26:15;1.77;;;0.85;;
72524;SDS011;60547;48.502;8.996;2023-04-24T03:28:41;2.60;;;0.90;;
72524;SDS011;60547;48.502;8.996;2023-04-24T03:31:06;2.47;;;0.90;;
72524;SDS011;60547;48.502;8.996;2023-04-24T03:33:32;1.83;;;0.70;;
72524;SDS011;60547;48.502;8.996;2023-04-24T03:35:58;1.55;;;0.68;;
72524;SDS011;60547;48.502;8.996;2023-04-24T03:38:23;0.77;;;0.60;;
72524;SDS011;60547;48.502;8.996;2023-04-24T03:40:49;1.58;;;0.65;;
72524;SDS011;60547;48.502;8.996;2023-04-24T03:43:14;0.88;;;0.68;;
72524;SDS011;60547;48.502;8.996;2023-04-24T03:45:40;1.90;;;0.70;;
72524;SDS011;60547;48.502;8.996;2023-04-24T03:48:05;1.55;;;0.60;;
72524;SDS011;60547;48.502;8.996;2023-04-24T03:50:31;2.50;;;0.80;;
72524;SDS011;60547;48.502;8.996;2023-04-24T03:52:56;2.50;;;1.05;;
72524;SDS011;60547;48.502;8.996;2023-04-24T03:55:22;2.45;;;1.30;;
72524;SDS011;60547;48.502;8.996;2023-04-24T03:57:47;4.15;;;2.10;;
72524;SDS011;60547;48.502;8.996;2023-04-24T04:00:13;3.03;;;1.63;;
72524;SDS011;60547;48.502;8.996;2023-04-24T04:02:39;3.22;;;1.40;;
72524;SDS011;60547;48.502;8.996;2023-04-24T04:05:05;3.22;;;1.30;;
72524;SDS011;60547;48.502;8.996;2023-04-24T04:07:31;1.20;;;0.93;;
72524;SDS011;60547;48.502;8.996;2023-04-24T04:09:56;1.92;;;0.95;;
72524;SDS011;60547;48.502;8.996;2023-04-24T04:12:22;2.58;;;1.00;;
72524;SDS011;60547;48.502;8.996;2023-04-24T04:14:47;2.38;;;0.80;;
72524;SDS011;60547;48.502;8.996;2023-04-24T04:17:13;2.20;;;1.00;;
72524;SDS011;60547;48.502;8.996;2023-04-24T04:19:38;6.38;;;1.20;;
72524;SDS011;60547;48.502;8.996;2023-04-24T04:22:04;1.85;;;0.90;;
72524;SDS011;60547;48.502;8.996;2023-04-24T04:24:29;1.63;;;0.70;;
72524;SDS011;60547;48.502;8.996;2023-04-24T04:26:55;2.25;;;0.90;;
72524;SDS011;60547;48.502;8.996;2023-04-24T04:29:22;2.00;;;0.73;;
72524;SDS011;60547;48.502;8.996;2023-04-24T04:31:47;2.25;;;1.00;;
72524;SDS011;60547;48.502;8.996;2023-04-24T04:34:13;3.42;;;1.20;;
72524;SDS011;60547;48.502;8.996;2023-04-24T04:36:39;3.08;;;1.23;;
72524;SDS011;60547;48.502;8.996;2023-04-24T04:39:06;4.18;;;1.30;;
72524;SDS011;60547;48.502;8.996;2023-04-24T04:41:32;3.97;;;1.70;;
72524;SDS011;60547;48.502;8.996;2023-04-24T04:44:00;3.15;;;1.30;;
72524;SDS011;60547;48.502;8.996;2023-04-24T04:46:26;2.40;;;0.95;;
72524;SDS011;60547;48.502;8.996;2023-04-24T04:48:55;1.33;;;0.85;;
72524;SDS011;60547;48.502;8.996;2023-04-24T04:51:21;2.03;;;0.90;;
72524;SDS011;60547;48.502;8.996;2023-04-24T04:53:47;1.70;;;0.95;;
72524;SDS011;60547;48.502;8.996;2023-04-24T04:56:12;2.40;;;1.10;;
72524;SDS011;60547;48.502;8.996;2023-04-24T04:58:38;1.92;;;0.80;;
72524;SDS011;60547;48.502;8.996;2023-04-24T05:01:03;2.05;;;1.15;;
72524;SDS011;60547;48.502;8.996;2023-04-24T05:03:29;2.28;;;1.15;;
72524;SDS011;60547;48.502;8.996;2023-04-24T05:05:54;1.95;;;1.00;;
72524;SDS011;60547;48.502;8.996;2023-04-24T05:08:20;2.08;;;1.00;;
72524;SDS011;60547;48.502;8.996;2023-04-24T05:10:45;2.50;;;1.20;;
72524;SDS011;60547;48.502;8.996;2023-04-24T05:13:11;2.25;;;1.08;;
72524;SDS011;60547;48.502;8.996;2023-04-24T05:15:36;2.70;;;1.33;;
72524;SDS011;60547;48.502;8.996;2023-04-24T05:18:02;2.67;;;1.67;;
72524;SDS011;60547;48.502;8.996;2023-04-24T05:20:28;3.40;;;1.73;;
72524;SDS011;60547;48.502;8.996;2023-04-24T05:22:53;3.60;;;1.50;;
72524;SDS011;60547;48.502;8.996;2023-04-24T05:25:19;3.20;;;1.80;;
72524;SDS011;60547;48.502;8.996;2023-04-24T05:27:44;3.47;;;1.63;;
72524;SDS011;60547;48.502;8.996;2023-04-24T05:30:11;4.38;;;1.42;;
72524;SDS011;60547;48.502;8.996;2023-04-24T05:32:37;3.00;;;1.48;;
72524;SDS011;60547;48.502;8.996;2023-04-24T05:35:03;3.50;;;1.35;;
72524;SDS011;60547;48.502;8.996;2023-04-24T05:37:28;3.47;;;1.42;;
72524;SDS011;60547;48.502;8.996;2023-04-24T05:39:54;2.72;;;1.30;;
72524;SDS011;60547;48.502;8.996;2023-04-24T05:42:19;3.70;;;1.75;;
72524;SDS011;60547;48.502;8.996;2023-04-24T05:44:45;4.18;;;2.22;;
72524;SDS011;60547;48.502;8.996;2023-04-24T05:47:10;4.35;;;1.95;;
72524;SDS011;60547;48.502;8.996;2023-04-24T05:49:36;3.75;;;1.42;;
72524;SDS011;60547;48.502;8.996;2023-04-24T05:52:01;2.60;;;1.40;;
72524;SDS011;60547;48.502;8.996;2023-04-24T05:54:29;2.67;;;1.33;;
72524;SDS011;60547;48.502;8.996;2023-04-24T05:56:55;2.80;;;1.40;;
72524;SDS011;60547;48.502;8.996;2023-04-24T05:59:21;3.15;;;1.67;;
72524;SDS011;60547;48.502;8.996;2023-04-24T06:01:46;3.33;;;1.80;;
72524;SDS011;60547;48.502;8.996;2023-04-24T06:04:12;3.42;;;1.80;;
72524;SDS011;60547;48.502;8.996;2023-04-24T06:06:39;3.63;;;1.80;;
72524;SDS011;60547;48.502;8.996;2023-04-24T06:09:04;3.92;;;1.45;;
72524;SDS011;60547;48.502;8.996;2023-04-24T06:11:30;3.28;;;1.67;;
72524;SDS011;60547;48.502;8.996;2023-04-24T06:13:55;2.97;;;1.42;;
72524;SDS011;60547;48.502;8.996;2023-04-24T06:16:21;3.88;;;1.50;;
72524;SDS011;60547;48.502;8.996;2023-04-24T06:18:46;3.90;;;1.33;;
72524;SDS011;60547;48.502;8.996;2023-04-24T06:21:12;4.30;;;1.77;;
72524;SDS011;60547;48.502;8.996;2023-04-24T06:23:38;3.10;;;1.70;;
72524;SDS011;60547;48.502;8.996;2023-04-24T06:26:03;3.75;;;1.70;;
72524;SDS011;60547;48.502;8.996;2023-04-24T06:28:29;4.75;;;1.60;;
72524;SDS011;60547;48.502;8.996;2023-04-24T06:30:54;3.33;;;1.50;;
72524;SDS011;60547;48.502;8.996;2023-04-24T06:33:20;2.67;;;1.30;;
72524;SDS011;60547;48.502;8.996;2023-04-24T06:35:46;2.65;;;1.40;;
72524;SDS011;60547;48.502;8.996;2023-04-24T06:38:11;2.83;;;1.45;;
72524;SDS011;60547;48.502;8.996;2023-04-24T06:40:37;3.97;;;1.50;;
72524;SDS011;60547;48.502;8.996;2023-04-24T06:43:02;1.92;;;1.20;;
72524;SDS011;60547;48.502;8.996;2023-04-24T06:45:28;3.45;;;1.63;;
72524;SDS011;60547;48.502;8.996;2023-04-24T06:47:55;3.40;;;1.70;;
72524;SDS011;60547;48.502;8.996;2023-04-24T06:50:21;2.88;;;1.40;;
72524;SDS011;60547;48.502;8.996;2023-04-24T06:52:46;2.85;;;1.48;;
72524;SDS011;60547;48.502;8.996;2023-04-24T06:55:12;2.33;;;1.10;;
72524;SDS011;60547;48.502;8.996;2023-04-24T06:57:37;3.63;;;1.80;;
72524;SDS011;60547;48.502;8.996;2023-04-24T07:00:03;4.75;;;2.25;;
72524;SDS011;60547;48.502;8.996;2023-04-24T07:02:30;3.60;;;1.77;;
72524;SDS011;60547;48.502;8.996;2023-04-24T07:04:55;3.42;;;1.77;;
72524;SDS011;60547;48.502;8.996;2023-04-24T07:07:22;2.72;;;1.40;;
72524;SDS011;60547;48.502;8.996;2023-04-24T07:09:48;4.10;;;1.50;;
72524;SDS011;60547;48.502;8.996;2023-04-24T07:12:16;2.60;;;1.40;;
72524;SDS011;60547;48.502;8.996;2023-04-24T07:14:42;3.38;;;1.40;;
72524;SDS011;60547;48.502;8.996;2023-04-24T07:17:08;2.92;;;1.20;;
72524;SDS011;60547;48.502;8.996;2023-04-24T07:19:34;2.65;;;1.20;;
72524;SDS011;60547;48.502;8.996;2023-04-24T07:22:00;2.20;;;1.10;;
72524;SDS011;60547;48.502;8.996;2023-04-24T07:24:26;1.92;;;1.02;;
72524;SDS011;60547;48.502;8.996;2023-04-24T07:26:52;2.35;;;1.10;;
72524;SDS011;60547;48.502;8.996;2023-04-24T07:29:18;2.88;;;1.20;;
72524;SDS011;60547;48.502;8.996;2023-04-24T07:31:44;3.38;;;1.35;;
72524;SDS011;60547;48.502;8.996;2023-04-24T07:34:10;2.30;;;1.20;;
72524;SDS011;60547;48.502;8.996;2023-04-24T07:36:35;2.05;;;1.17;;
72524;SDS011;60547;48.502;8.996;2023-04-24T07:39:03;2.20;;;1.10;;
72524;SDS011;60547;48.502;8.996;2023-04-24T07:41:29;3.13;;;1.30;;
72524;SDS011;60547;48.502;8.996;2023-04-24T07:43:55;3.88;;;1.55;;
72524;SDS011;60547;48.502;8.996;2023-04-24T07:46:20;2.58;;;1.23;;
72524;SDS011;60547;48.502;8.996;2023-04-24T07:48:46;3.95;;;1.35;;
72524;SDS011;60547;48.502;8.996;2023-04-24T07:51:13;2.22;;;1.10;;
72524;SDS011;60547;48.502;8.996;2023-04-24T07:53:40;3.50;;;1.30;;
72524;SDS011;60547;48.502;8.996;2023-04-24T07:56:06;3.60;;;1.20;;
72524;SDS011;60547;48.502;8.996;2023-04-24T07:58:32;2.35;;;1.20;;
72524;SDS011;60547;48.502;8.996;2023-04-24T08:00:58;1.83;;;1.30;;
72524;SDS011;60547;48.502;8.996;2023-04-24T08:03:23;2.30;;;1.33;;
72524;SDS011;60547;48.502;8.996;2023-04-24T08:05:51;3.85;;;1.50;;
72524;SDS011;60547;48.502;8.996;2023-04-24T08:08:17;2.40;;;1.20;;
72524;SDS011;60547;48.502;8.996;2023-04-24T08:10:42;3.65;;;1.30;;
72524;SDS011;60547;48.502;8.996;2023-04-24T08:13:08;3.05;;;1.30;;
72524;SDS011;60547;48.502;8.996;2023-04-24T08:15:33;3.47;;;1.30;;
72524;SDS011;60547;48.502;8.996;2023-04-24T08:17:59;2.70;;;1.25;;
72524;SDS011;60547;48.502;8.996;2023-04-24T08:20:25;1.98;;;1.13;;
72524;SDS011;60547;48.502;8.996;2023-04-24T08:22:50;6.03;;;1.55;;
72524;SDS011;60547;48.502;8.996;2023-04-24T08:25:16;2.35;;;1.20;;
72524;SDS011;60547;48.502;8.996;2023-04-24T08:27:43;3.25;;;1.33;;
72524;SDS011;60547;48.502;8.996;2023-04-24T08:30:08;3.08;;;1.23;;
72524;SDS011;60547;48.502;8.996;2023-04-24T08:32:35;3.65;;;1.73;;
72524;SDS011;60547;48.502;8.996;2023-04-24T08:35:01;4.60;;;1.55;;
72524;SDS011;60547;48.502;8.996;2023-04-24T08:37:27;2.45;;;1.23;;
72524;SDS011;60547;48.502;8.996;2023-04-24T08:39:53;3.03;;;1.10;;
72524;SDS011;60547;48.502;8.996;2023-04-24T08:42:19;3.58;;;1.23;;
72524;SDS011;60547;48.502;8.996;2023-04-24T08:44:46;3.30;;;1.48;;
72524;SDS011;60547;48.502;8.996;2023-04-24T08:47:13;4.50;;;1.27;;
72524;SDS011;60547;48.502;8.996;2023-04-24T08:49:40;3.42;;;1.30;;
72524;SDS011;60547;48.502;8.996;2023-04-24T08:52:05;4.20;;;1.48;;
72524;SDS011;60547;48.502;8.996;2023-04-24T08:54:31;3.33;;;1.33;;
72524;SDS011;60547;48.502;8.996;2023-04-24T08:56:59;3.30;;;1.30;;
72524;SDS011;60547;48.502;8.996;2023-04-24T08:59:26;3.15;;;1.30;;
72524;SDS011;60547;48.502;8.996;2023-04-24T09:01:53;3.15;;;1.45;;
72524;SDS011;60547;48.502;8.996;2023-04-24T09:04:20;3.25;;;1.23;;
72524;SDS011;60547;48.502;8.996;2023-04-24T09:06:49;3.17;;;1.27;;
72524;SDS011;60547;48.502;8.996;2023-04-24T09:09:17;3.60;;;1.52;;
72524;SDS011;60547;48.502;8.996;2023-04-24T09:11:45;4.65;;;1.30;;
72524;SDS011;60547;48.502;8.996;2023-04-24T09:14:11;4.05;;;1.50;;
72524;SDS011;60547;48.502;8.996;2023-04-24T09:16:37;5.88;;;1.60;;
72524;SDS011;60547;48.502;8.996;2023-04-24T09:19:03;4.07;;;1.40;;
72524;SDS011;60547;48.502;8.996;2023-04-24T09:21:35;3.83;;;1.17;;
72524;SDS011;60547;48.502;8.996;2023-04-24T09:24:04;3.45;;;1.15;;
72524;SDS011;60547;48.502;8.996;2023-04-24T09:26:31;3.05;;;1.30;;
72524;SDS011;60547;48.502;8.996;2023-04-24T09:28:57;3.22;;;1.15;;
72524;SDS011;60547;48.502;8.996;2023-04-24T09:31:23;2.85;;;1.38;;
72524;SDS011;60547;48.502;8.996;2023-04-24T09:36:29;2.42;;;1.20;;
72524;SDS011;60547;48.502;8.996;2023-04-24T09:39:01;6.97;;;1.42;;
72524;SDS011;60547;48.502;8.996;2023-04-24T09:41:27;1.80;;;1.13;;
72524;SDS011;60547;48.502;8.996;2023-04-24T09:43:56;3.33;;;1.30;;
72524;SDS011;60547;48.502;8.996;2023-04-24T09:46:29;4.55;;;1.40;;
72524;SDS011;60547;48.502;8.996;2023-04-24T09:48:56;2.67;;;1.20;;
72524;SDS011;60547;48.502;8.996;2023-04-24T09:51:35;3.45;;;1.33;;
72524;SDS011;60547;48.502;8.996;2023-04-24T09:54:04;2.58;;;1.15;;
72524;SDS011;60547;48.502;8.996;2023-04-24T09:56:36;2.97;;;1.38;;
72524;SDS011;60547;48.502;8.996;2023-04-24T09:59:05;2.63;;;1.20;;
72524;SDS011;60547;48.502;8.996;2023-04-24T10:01:31;1.85;;;0.90;;
72524;SDS011;60547;48.502;8.996;2023-04-24T10:03:57;3.72;;;1.48;;
72524;SDS011;60547;48.502;8.996;2023-04-24T10:06:23;4.10;;;1.17;;
72524;SDS011;60547;48.502;8.996;2023-04-24T10:08:56;3.38;;;1.10;;
72524;SDS011;60547;48.502;8.996;2023-04-24T10:11:24;2.20;;;1.00;;
72524;SDS011;60547;48.502;8.996;2023-04-24T10:13:51;2.22;;;1.15;;
72524;SDS011;60547;48.502;8.996;2023-04-24T10:16:17;3.78;;;1.00;;
72524;SDS011;60547;48.502;8.996;2023-04-24T10:18:44;3.03;;;1.20;;
72524;SDS011;60547;48.502;8.996;2023-04-24T10:21:11;3.10;;;1.10;;
72524;SDS011;60547;48.502;8.996;2023-04-24T10:23:37;1.88;;;0.80;;
72524;SDS011;60547;48.502;8.996;2023-04-24T10:26:04;2.50;;;1.10;;
72524;SDS011;60547;48.502;8.996;2023-04-24T10:28:30;3.28;;;1.02;;
72524;SDS011;60547;48.502;8.996;2023-04-24T10:30:57;2.38;;;1.10;;
72524;SDS011;60547;48.502;8.996;2023-04-24T10:33:23;1.77;;;0.90;;
72524;SDS011;60547;48.502;8.996;2023-04-24T10:35:49;2.35;;;0.93;;
72524;SDS011;60547;48.502;8.996;2023-04-24T10:38:16;2.05;;;0.95;;
72524;SDS011;60547;48.502;8.996;2023-04-24T10:40:49;2.40;;;0.90;;
72524;SDS011;60547;48.502;8.996;2023-04-24T10:43:16;2.15;;;1.00;;
72524;SDS011;60547;48.502;8.996;2023-04-24T10:45:42;1.85;;;1.00;;
72524;SDS011;60547;48.502;8.996;2023-04-24T10:48:26;2.33;;;1.10;;
72524;SDS011;60547;48.502;8.996;2023-04-24T10:50:53;3.22;;;1.10;;
72524;SDS011;60547;48.502;8.996;2023-04-24T10:53:19;1.77;;;0.90;;
72524;SDS011;60547;48.502;8.996;2023-04-24T10:55:47;2.55;;;1.00;;
72524;SDS011;60547;48.502;8.996;2023-04-24T10:58:18;2.25;;;0.90;;
72524;SDS011;60547;48.502;8.996;2023-04-24T11:00:57;2.95;;;1.00;;
72524;SDS011;60547;48.502;8.996;2023-04-24T11:05:56;2.58;;;1.00;;
72524;SDS011;60547;48.502;8.996;2023-04-24T11:08:43;2.75;;;1.00;;
72524;SDS011;60547;48.502;8.996;2023-04-24T11:16:21;1.88;;;0.95;;
72524;SDS011;60547;48.502;8.996;2023-04-24T11:21:31;2.38;;;0.90;;
72524;SDS011;60547;48.502;8.996;2023-04-24T11:23:58;3.30;;;1.35;;
72524;SDS011;60547;48.502;8.996;2023-04-24T11:26:23;2.95;;;1.00;;
72524;SDS011;60547;48.502;8.996;2023-04-24T11:28:55;3.42;;;1.10;;
72524;SDS011;60547;48.502;8.996;2023-04-24T11:31:41;2.80;;;0.95;;
72524;SDS011;60547;48.502;8.996;2023-04-24T11:34:15;2.35;;;1.00;;
72524;SDS011;60547;48.502;8.996;2023-04-24T11:36:44;1.50;;;0.73;;
72524;SDS011;60547;48.502;8.996;2023-04-24T11:39:11;1.73;;;0.88;;
72524;SDS011;60547;48.502;8.996;2023-04-24T11:41:37;1.33;;;0.90;;
72524;SDS011;60547;48.502;8.996;2023-04-24T11:44:03;3.80;;;1.08;;
72524;SDS011;60547;48.502;8.996;2023-04-24T11:46:30;3.65;;;0.90;;
72524;SDS011;60547;48.502;8.996;2023-04-24T11:48:57;1.85;;;0.90;;
72524;SDS011;60547;48.502;8.996;2023-04-24T11:51:23;2.45;;;1.15;;
72524;SDS011;60547;48.502;8.996;2023-04-24T11:53:50;3.42;;;1.10;;
72524;SDS011;60547;48.502;8.996;2023-04-24T11:56:20;2.95;;;1.10;;
72524;SDS011;60547;48.502;8.996;2023-04-24T11:58:47;2.75;;;0.98;;
72524;SDS011;60547;48.502;8.996;2023-04-24T12:01:13;2.13;;;1.00;;
72524;SDS011;60547;48.502;8.996;2023-04-24T12:03:38;2.45;;;1.00;;
72524;SDS011;60547;48.502;8.996;2023-04-24T12:06:05;4.25;;;1.13;;
72524;SDS011;60547;48.502;8.996;2023-04-24T12:08:32;1.10;;;0.80;;
72524;SDS011;60547;48.502;8.996;2023-04-24T12:10:59;1.65;;;0.95;;
72524;SDS011;60547;48.502;8.996;2023-04-24T12:13:26;1.80;;;0.90;;
72524;SDS011;60547;48.502;8.996;2023-04-24T12:15:51;1.90;;;0.90;;
72524;SDS011;60547;48.502;8.996;2023-04-24T12:18:17;1.83;;;1.00;;
72524;SDS011;60547;48.502;8.996;2023-04-24T12:20:43;3.25;;;1.02;;
72524;SDS011;60547;48.502;8.996;2023-04-24T12:23:10;1.80;;;0.90;;
72524;SDS011;60547;48.502;8.996;2023-04-24T12:25:38;1.83;;;0.95;;
72524;SDS011;60547;48.502;8.996;2023-04-24T12:30:29;2.50;;;2.03;;
72524;SDS011;60547;48.502;8.996;2023-04-24T12:32:57;2.10;;;0.90;;
72524;SDS011;60547;48.502;8.996;2023-04-24T12:35:24;2.17;;;1.00;;
72524;SDS011;60547;48.502;8.996;2023-04-24T12:37:51;2.08;;;1.02;;
72524;SDS011;60547;48.502;8.996;2023-04-24T12:40:17;3.70;;;1.10;;
72524;SDS011;60547;48.502;8.996;2023-04-24T12:42:49;3.67;;;1.27;;
72524;SDS011;60547;48.502;8.996;2023-04-24T12:45:16;2.97;;;1.30;;
72524;SDS011;60547;48.502;8.996;2023-04-24T12:47:43;2.63;;;1.10;;
72524;SDS011;60547;48.502;8.996;2023-04-24T12:50:11;2.30;;;1.13;;
72524;SDS011;60547;48.502;8.996;2023-04-24T12:52:37;3.67;;;1.20;;
72524;SDS011;60547;48.502;8.996;2023-04-24T12:55:04;2.78;;;1.10;;
72524;SDS011;60547;48.502;8.996;2023-04-24T12:57:33;2.15;;;1.10;;
72524;SDS011;60547;48.502;8.996;2023-04-24T13:00:00;2.58;;;1.27;;
72524;SDS011;60547;48.502;8.996;2023-04-24T13:02:27;3.42;;;1.02;;
72524;SDS011;60547;48.502;8.996;2023-04-24T13:04:55;2.38;;;1.10;;
72524;SDS011;60547;48.502;8.996;2023-04-24T13:07:21;2.75;;;1.10;;
72524;SDS011;60547;48.502;8.996;2023-04-24T13:09:47;3.00;;;1.20;;
72524;SDS011;60547;48.502;8.996;2023-04-24T13:12:13;2.90;;;1.10;;
72524;SDS011;60547;48.502;8.996;2023-04-24T13:14:39;2.78;;;1.45;;
72524;SDS011;60547;48.502;8.996;2023-04-24T13:17:05;2.47;;;1.13;;
72524;SDS011;60547;48.502;8.996;2023-04-24T13:19:35;2.75;;;1.08;;
72524;SDS011;60547;48.502;8.996;2023-04-24T13:22:10;2.03;;;1.10;;
72524;SDS011;60547;48.502;8.996;2023-04-24T13:24:37;3.05;;;1.20;;
72524;SDS011;60547;48.502;8.996;2023-04-24T13:27:03;2.85;;;1.13;;
72524;SDS011;60547;48.502;8.996;2023-04-24T13:29:29;1.92;;;1.00;;
72524;SDS011;60547;48.502;8.996;2023-04-24T13:31:54;2.72;;;1.02;;
72524;SDS011;60547;48.502;8.996;2023-04-24T13:34:20;3.50;;;1.20;;
72524;SDS011;60547;48.502;8.996;2023-04-24T13:36:47;3.10;;;1.40;;
72524;SDS011;60547;48.502;8.996;2023-04-24T13:39:12;3.05;;;1.38;;
72524;SDS011;60547;48.502;8.996;2023-04-24T13:41:38;3.42;;;1.25;;
72524;SDS011;60547;48.502;8.996;2023-04-24T13:44:05;3.47;;;1.30;;
72524;SDS011;60547;48.502;8.996;2023-04-24T13:46:31;3.10;;;1.10;;
72524;SDS011;60547;48.502;8.996;2023-04-24T13:48:57;2.30;;;1.10;;
72524;SDS011;60547;48.502;8.996;2023-04-24T13:51:23;1.92;;;1.10;;
72524;SDS011;60547;48.502;8.996;2023-04-24T13:53:52;2.90;;;1.27;;
72524;SDS011;60547;48.502;8.996;2023-04-24T13:56:18;2.90;;;1.23;;
72524;SDS011;60547;48.502;8.996;2023-04-24T13:58:44;3.20;;;1.15;;
72524;SDS011;60547;48.502;8.996;2023-04-24T14:01:09;3.00;;;1.30;;
72524;SDS011;60547;48.502;8.996;2023-04-24T14:03:37;2.80;;;1.33;;
72524;SDS011;60547;48.502;8.996;2023-04-24T14:06:03;2.50;;;1.23;;
72524;SDS011;60547;48.502;8.996;2023-04-24T14:08:28;3.20;;;1.30;;
72524;SDS011;60547;48.502;8.996;2023-04-24T14:10:54;2.90;;;1.35;;
72524;SDS011;60547;48.502;8.996;2023-04-24T14:13:20;3.03;;;1.42;;
72524;SDS011;60547;48.502;8.996;2023-04-24T14:15:46;3.45;;;1.30;;
72524;SDS011;60547;48.502;8.996;2023-04-24T14:18:11;2.38;;;1.20;;
72524;SDS011;60547;48.502;8.996;2023-04-24T14:20:37;2.40;;;1.23;;
72524;SDS011;60547;48.502;8.996;2023-04-24T14:23:03;2.50;;;1.10;;
72524;SDS011;60547;48.502;8.996;2023-04-24T14:25:29;3.22;;;1.52;;
72524;SDS011;60547;48.502;8.996;2023-04-24T14:27:55;3.45;;;1.30;;
72524;SDS011;60547;48.502;8.996;2023-04-24T14:30:20;2.75;;;1.23;;
72524;SDS011;60547;48.502;8.996;2023-04-24T14:32:46;2.10;;;1.23;;
72524;SDS011;60547;48.502;8.996;2023-04-24T14:35:12;2.33;;;1.13;;
72524;SDS011;60547;48.502;8.996;2023-04-24T14:37:37;2.58;;;1.20;;
72524;SDS011;60547;48.502;8.996;2023-04-24T14:40:03;4.30;;;1.27;;
72524;SDS011;60547;48.502;8.996;2023-04-24T14:42:33;4.68;;;1.50;;
72524;SDS011;60547;48.502;8.996;2023-04-24T14:44:59;2.35;;;1.10;;
72524;SDS011;60547;48.502;8.996;2023-04-24T14:47:24;3.13;;;1.40;;
72524;SDS011;60547;48.502;8.996;2023-04-24T14:49:50;3.35;;;1.33;;
72524;SDS011;60547;48.502;8.996;2023-04-24T14:52:16;3.58;;;1.42;;
72524;SDS011;60547;48.502;8.996;2023-04-24T14:54:42;3.30;;;1.48;;
72524;SDS011;60547;48.502;8.996;2023-04-24T14:57:08;3.83;;;1.70;;
72524;SDS011;60547;48.502;8.996;2023-04-24T14:59:34;3.30;;;1.52;;